Time;durP1;ratioP1;P1;durP2;ratioP2;P2;SDS_P1;SDS_P2;PMS_P1;PMS_P2;Temp;Humidity;BMP_temperature;BMP_pressure;BME280_temperature;BME280_humidity;BME280_pressure;Samples;Min_cycle;Max_cycle;Signal;HPM_P1;HPM_P2
2022/01/08 00:00:33;;;;;;;26.13;14.50;;;;;;;0.54;93.62;100976.69;5067858;28;20028;-57
2022/01/08 00:02:59;;;;;;;23.70;14.93;;;;;;;0.50;93.83;100974.38;5059060;28;20058;-55
2022/01/08 00:05:24;;;;;;;28.03;15.63;;;;;;;0.52;93.65;100982.97;5058665;28;20123;-55
2022/01/08 00:07:50;;;;;;;24.13;15.73;;;;;;;0.53;93.87;100982.00;5060396;28;20060;-55
2022/01/08 00:10:15;;;;;;;27.30;15.73;;;;;;;0.53;93.89;100979.41;5068233;28;20048;-55
2022/01/08 00:12:41;;;;;;;28.87;15.47;;;;;;;0.56;93.97;100980.03;5058944;28;20121;-55
2022/01/08 00:15:07;;;;;;;26.90;15.97;;;;;;;0.58;94.14;100985.19;5059075;28;20044;-55
2022/01/08 00:17:33;;;;;;;25.33;15.70;;;;;;;0.57;94.14;100983.47;5061517;28;20091;-59
2022/01/08 00:19:58;;;;;;;27.77;15.70;;;;;;;0.56;94.21;100989.66;5062311;28;20028;-52
2022/01/08 00:22:24;;;;;;;25.97;15.97;;;;;;;0.55;94.04;100999.25;5062806;28;20412;-55
2022/01/08 00:24:52;;;;;;;25.70;14.87;;;;;;;0.56;94.04;100992.25;5055924;28;20032;-55
2022/01/08 00:27:22;;;;;;;24.37;15.60;;;;;;;0.54;94.00;101000.19;5058997;28;20572;-55
2022/01/08 00:29:48;;;;;;;23.23;15.37;;;;;;;0.53;94.04;101000.31;5057537;28;20376;-56
2022/01/08 00:32:14;;;;;;;28.17;15.43;;;;;;;0.51;94.11;101002.19;5060922;28;20090;-55
2022/01/08 00:34:40;;;;;;;24.23;13.80;;;;;;;0.47;93.98;101011.16;5063322;28;20060;-55
2022/01/08 00:37:06;;;;;;;29.27;14.83;;;;;;;0.44;94.00;101001.78;5059897;28;20060;-54
2022/01/08 00:39:32;;;;;;;25.70;14.83;;;;;;;0.43;93.94;101005.31;5061093;28;20036;-53
2022/01/08 00:41:57;;;;;;;25.00;14.03;;;;;;;0.47;93.88;101003.34;5056231;28;20267;-55
2022/01/08 00:44:22;;;;;;;22.27;13.97;;;;;;;0.48;93.88;101002.41;5060762;28;20112;-54
2022/01/08 00:46:47;;;;;;;22.70;13.07;;;;;;;0.49;93.73;101004.06;5063754;28;20035;-55
2022/01/08 00:49:13;;;;;;;21.23;12.50;;;;;;;0.50;93.87;101024.03;5055748;28;20373;-55
2022/01/08 00:51:38;;;;;;;18.67;11.47;;;;;;;0.48;93.78;101028.53;5062210;28;20460;-55
2022/01/08 00:54:03;;;;;;;22.67;11.03;;;;;;;0.44;93.43;101029.66;5059507;28;20107;-55
2022/01/08 00:56:28;;;;;;;22.67;11.70;;;;;;;0.46;93.31;101030.41;5055580;28;20547;-55
2022/01/08 00:58:54;;;;;;;19.83;11.30;;;;;;;0.51;93.31;101025.69;5060124;28;20031;-54
2022/01/08 01:01:19;;;;;;;21.60;11.80;;;;;;;0.55;93.43;101033.22;5063458;28;20028;-54
2022/01/08 01:03:44;;;;;;;22.73;12.27;;;;;;;0.58;93.57;101030.44;5062831;28;20043;-55
2022/01/08 01:06:10;;;;;;;22.37;12.10;;;;;;;0.61;93.51;101029.41;5055112;28;20136;-55
2022/01/08 01:08:35;;;;;;;22.53;11.97;;;;;;;0.59;93.61;101021.66;5057929;28;20056;-55
2022/01/08 01:11:01;;;;;;;23.77;12.57;;;;;;;0.61;93.72;101016.34;5053776;28;20039;-55
2022/01/08 01:13:26;;;;;;;20.43;12.73;;;;;;;0.61;93.59;101018.94;5055398;28;20025;-54
2022/01/08 01:15:51;;;;;;;21.80;12.67;;;;;;;0.58;93.57;101020.00;5055006;28;20035;-55
2022/01/08 01:18:17;;;;;;;18.67;12.23;;;;;;;0.55;93.27;101025.41;5060857;28;20024;-53
2022/01/08 01:20:42;;;;;;;23.03;12.17;;;;;;;0.48;93.39;101013.69;5055895;28;20056;-55
2022/01/08 01:23:12;;;;;;;24.77;13.13;;;;;;;0.43;93.28;101007.09;5055936;28;20036;-55
2022/01/08 01:25:43;;;;;;;24.03;12.60;;;;;;;0.40;93.32;101018.59;5060472;28;20508;-55
2022/01/08 01:28:30;;;;;;;24.47;12.83;;;;;;;0.38;93.34;101022.25;5058098;28;20369;-53
2022/01/08 01:41:08;;;;;;;24.63;12.73;;;;;;;0.35;93.44;101012.00;5059896;28;20119;-56
2022/01/08 01:47:04;;;;;;;20.60;13.43;;;;;;;0.35;93.55;101031.13;5056148;28;20514;-56
2022/01/08 01:49:35;;;;;;;24.00;13.77;;;;;;;0.36;93.69;101038.00;5050783;28;20029;-55
2022/01/08 01:52:01;;;;;;;24.87;13.33;;;;;;;0.36;93.76;101035.41;5056461;28;20024;-55
2022/01/08 01:54:28;;;;;;;22.27;13.67;;;;;;;0.37;93.71;101034.47;5068672;28;20027;-56
2022/01/08 01:56:55;;;;;;;23.83;13.23;;;;;;;0.38;93.66;101032.69;5058643;28;20492;-55
2022/01/08 01:59:20;;;;;;;23.53;13.67;;;;;;;0.39;93.80;101021.31;5063461;28;20025;-55
2022/01/08 02:01:45;;;;;;;21.63;13.17;;;;;;;0.37;93.66;101025.78;5061654;28;20029;-55
2022/01/08 02:04:11;;;;;;;27.90;14.47;;;;;;;0.34;93.50;101019.00;5059173;28;20039;-55
2022/01/08 02:06:36;;;;;;;27.23;14.40;;;;;;;0.34;93.62;101026.84;5056406;28;20059;-55
2022/01/08 02:09:01;;;;;;;24.20;14.37;;;;;;;0.35;93.69;101022.44;5058974;28;20039;-54
2022/01/08 02:11:27;;;;;;;25.80;14.13;;;;;;;0.33;93.74;101024.31;5060121;28;20025;-55
2022/01/08 02:14:01;;;;;;;25.17;13.70;;;;;;;0.32;93.64;101022.66;5059829;28;20047;-55
2022/01/08 02:16:27;;;;;;;24.57;13.90;;;;;;;0.29;93.66;101018.47;5061863;28;20558;-53
2022/01/08 02:18:52;;;;;;;28.57;14.90;;;;;;;0.25;93.48;101019.56;5059804;28;20024;-54
2022/01/08 02:21:17;;;;;;;28.13;14.83;;;;;;;0.23;93.65;101030.13;5057422;28;20111;-55
2022/01/08 02:23:43;;;;;;;25.90;14.80;;;;;;;0.20;93.70;101029.50;5052915;28;20511;-55
2022/01/08 02:26:10;;;;;;;26.73;15.87;;;;;;;0.18;93.58;101032.19;5060847;28;20036;-55
2022/01/08 02:28:37;;;;;;;29.60;16.40;;;;;;;0.19;93.63;101033.03;5053919;28;20116;-55
2022/01/08 02:31:03;;;;;;;26.07;16.20;;;;;;;0.18;93.95;101024.38;5059485;28;20032;-54
2022/01/08 02:33:29;;;;;;;30.90;16.23;;;;;;;0.18;93.81;101029.59;5053767;28;20077;-55
2022/01/08 02:35:55;;;;;;;34.27;16.93;;;;;;;0.18;93.88;101032.19;5062883;28;20103;-55
2022/01/08 02:38:21;;;;;;;25.97;17.67;;;;;;;0.17;93.84;101037.53;5051422;28;20103;-55
2022/01/08 02:40:58;;;;;;;28.90;18.10;;;;;;;0.14;93.77;101035.94;5058265;28;20392;-56
2022/01/08 02:43:24;;;;;;;29.23;17.93;;;;;;;0.13;93.85;101041.28;5055476;28;20059;-54
2022/01/08 02:45:49;;;;;;;28.47;19.43;;;;;;;0.10;93.82;101028.41;5057820;28;20079;-55
2022/01/08 02:48:15;;;;;;;33.47;19.33;;;;;;;0.11;93.93;101038.75;5055313;28;20125;-54
2022/01/08 02:50:40;;;;;;;36.20;19.90;;;;;;;0.11;94.20;101040.53;5055675;28;20029;-55
2022/01/08 02:53:05;;;;;;;39.53;19.70;;;;;;;0.09;94.10;101035.41;5059967;28;20083;-55
2022/01/08 02:55:31;;;;;;;33.37;20.00;;;;;;;0.09;94.17;101038.03;5055504;28;20035;-55
2022/01/08 02:57:56;;;;;;;34.63;19.20;;;;;;;0.08;94.12;101041.56;5051044;28;20036;-55
2022/01/08 03:00:21;;;;;;;37.23;19.70;;;;;;;0.09;94.24;101042.41;5060278;28;20640;-55
2022/01/08 03:02:49;;;;;;;30.67;19.80;;;;;;;0.09;94.17;101040.63;5056445;28;20035;-55
2022/01/08 03:05:15;;;;;;;35.20;19.77;;;;;;;0.08;94.21;101038.97;5062119;28;20116;-55
2022/01/08 03:07:42;;;;;;;36.47;20.43;;;;;;;0.10;94.42;101039.69;5056439;28;20123;-55
2022/01/08 03:10:10;;;;;;;38.77;21.30;;;;;;;0.12;94.45;101043.03;5050138;28;20102;-52
2022/01/08 03:12:40;;;;;;;38.47;20.97;;;;;;;0.11;94.52;101038.75;5054284;28;20035;-55
2022/01/08 03:15:07;;;;;;;31.43;19.33;;;;;;;0.12;94.41;101034.38;5055860;28;20047;-55
2022/01/08 03:17:32;;;;;;;38.83;20.80;;;;;;;0.11;94.28;101030.94;5055185;28;20029;-55
2022/01/08 03:20:03;;;;;;;36.53;20.60;;;;;;;0.14;94.22;101029.88;5057987;28;20033;-54
2022/01/08 03:22:29;;;;;;;39.97;20.67;;;;;;;0.12;94.36;101035.22;5057923;28;20043;-55
2022/01/08 03:24:55;;;;;;;40.60;20.23;;;;;;;0.14;94.41;101035.13;5056529;28;20116;-55
2022/01/08 03:27:20;;;;;;;36.13;21.43;;;;;;;0.17;94.13;101034.91;5054579;28;20099;-55
2022/01/08 03:29:45;;;;;;;34.73;19.53;;;;;;;0.20;94.37;101040.78;5040485;28;20028;-54
2022/01/08 03:32:11;;;;;;;33.57;18.97;;;;;;;0.24;94.39;101042.25;5062178;28;20472;-55
2022/01/08 03:34:36;;;;;;;29.33;19.17;;;;;;;0.25;94.49;101043.06;5063020;28;20105;-55
2022/01/08 03:37:01;;;;;;;34.80;19.33;;;;;;;0.26;94.29;101044.75;5060782;28;20059;-53
2022/01/08 03:39:27;;;;;;;38.67;19.47;;;;;;;0.26;94.13;101047.38;5057952;28;20538;-55
2022/01/08 03:41:52;;;;;;;35.27;18.47;;;;;;;0.26;93.81;101047.38;5056539;28;20123;-53
2022/01/08 03:44:18;;;;;;;34.37;19.20;;;;;;;0.23;93.90;101051.00;5057291;28;20439;-57
2022/01/08 03:46:43;;;;;;;33.47;18.90;;;;;;;0.21;93.86;101052.06;5063353;28;20032;-55
2022/01/08 03:49:22;;;;;;;35.50;19.10;;;;;;;0.16;93.61;101057.56;5065333;28;20036;-54
2022/01/08 03:51:48;;;;;;;34.55;18.67;;;;;;;0.15;93.71;101048.06;5058355;28;20044;-54
2022/01/08 03:54:13;;;;;;;33.70;17.77;;;;;;;0.15;93.79;101042.84;5056323;28;20032;-56
2022/01/08 03:56:38;;;;;;;36.43;17.73;;;;;;;0.13;93.71;101038.66;5061006;28;20024;-54
2022/01/08 03:59:04;;;;;;;34.43;17.73;;;;;;;0.11;93.63;101038.75;5057072;28;20027;-55
2022/01/08 04:01:29;;;;;;;31.70;18.50;;;;;;;0.07;93.57;101041.66;5062882;28;20049;-55
2022/01/08 04:03:54;;;;;;;33.20;18.33;;;;;;;0.04;93.68;101049.72;5062618;28;20074;-55
2022/01/08 04:06:20;;;;;;;35.20;17.97;;;;;;;0.01;93.79;101053.34;5058727;28;20127;-55
2022/01/08 04:08:45;;;;;;;32.03;17.47;;;;;;;-0.03;93.83;101059.69;5053270;28;20107;-55
2022/01/08 04:11:10;;;;;;;33.53;17.60;;;;;;;-0.07;93.52;101068.63;5062904;28;20043;-55
2022/01/08 04:13:39;;;;;;;33.87;18.07;;;;;;;-0.12;93.45;101060.25;5061857;28;20467;-55
2022/01/08 04:16:12;;;;;;;33.47;18.10;;;;;;;-0.16;93.35;101058.78;5064101;28;20025;-55
2022/01/08 04:18:38;;;;;;;33.23;19.43;;;;;;;-0.17;93.63;101052.72;5056253;28;20126;-55
2022/01/08 04:23:40;;;;;;;35.13;18.90;;;;;;;-0.16;94.10;101070.06;5062715;28;20434;-56
2022/01/08 04:26:06;;;;;;;36.37;19.33;;;;;;;-0.13;94.01;101077.69;5060677;28;20023;-53
2022/01/08 04:28:31;;;;;;;36.30;19.27;;;;;;;-0.10;94.02;101074.06;5058999;28;20079;-55
2022/01/08 04:30:56;;;;;;;35.60;19.07;;;;;;;-0.12;94.27;101081.16;5059168;28;20425;-54
2022/01/08 04:33:21;;;;;;;34.70;19.53;;;;;;;-0.13;94.29;101084.69;5054791;28;20048;-53
2022/01/08 04:35:47;;;;;;;35.57;19.50;;;;;;;-0.15;94.66;101086.56;5062945;28;20479;-55
2022/01/08 04:38:12;;;;;;;39.67;19.73;;;;;;;-0.14;94.42;101083.03;5058588;28;20036;-54
2022/01/08 04:40:40;;;;;;;37.23;20.37;;;;;;;-0.16;94.33;101079.66;5064137;28;20510;-55
2022/01/08 04:43:06;;;;;;;39.00;20.77;;;;;;;-0.17;94.58;101088.44;5057445;28;20029;-53
2022/01/08 04:45:31;;;;;;;33.90;19.60;;;;;;;-0.18;94.58;101082.38;5068750;28;20375;-54
2022/01/08 04:47:58;;;;;;;38.90;20.00;;;;;;;-0.16;94.53;101079.66;5060663;28;20187;-55
2022/01/08 04:50:24;;;;;;;38.90;19.37;;;;;;;-0.16;94.73;101080.50;5062404;28;20444;-53
2022/01/08 04:52:50;;;;;;;38.37;19.77;;;;;;;-0.14;95.00;101077.78;5057105;28;20412;-55
2022/01/08 04:55:15;;;;;;;40.27;20.23;;;;;;;-0.15;94.85;101081.34;5056285;28;20025;-53
2022/01/08 04:57:41;;;;;;;34.40;20.43;;;;;;;-0.15;94.93;101097.00;5051281;28;20073;-55
2022/01/08 05:00:07;;;;;;;36.13;20.07;;;;;;;-0.17;94.92;101101.47;5057277;28;20086;-52
2022/01/08 05:02:32;;;;;;;32.60;19.17;;;;;;;-0.16;94.97;101103.16;5055241;28;20055;-55
2022/01/08 05:04:57;;;;;;;36.83;20.23;;;;;;;-0.15;94.83;101091.78;5058120;28;20057;-55
2022/01/08 05:07:22;;;;;;;36.53;20.10;;;;;;;-0.13;95.16;101101.19;5061988;28;20028;-52
2022/01/08 05:09:48;;;;;;;34.23;20.37;;;;;;;-0.10;95.32;101093.16;5040614;28;20032;-55
2022/01/08 05:12:14;;;;;;;37.33;20.47;;;;;;;-0.09;95.37;101091.41;5057723;28;20031;-55
2022/01/08 05:14:40;;;;;;;37.73;21.00;;;;;;;-0.07;95.24;101099.97;5058608;28;20060;-53
2022/01/08 05:17:05;;;;;;;39.40;20.13;;;;;;;-0.06;95.36;101110.31;5064171;28;20073;-54
2022/01/08 05:19:50;;;;;;;30.10;20.23;;;;;;;-0.05;95.25;101103.31;5057324;28;20056;-54
2022/01/08 05:22:28;;;;;;;33.03;19.87;;;;;;;-0.07;95.49;101110.41;5061672;28;20110;-55
2022/01/08 05:24:54;;;;;;;40.00;20.90;;;;;;;-0.10;95.21;101095.78;5062720;28;20082;-54
2022/01/08 05:27:19;;;;;;;35.97;21.13;;;;;;;-0.12;95.46;101099.41;5059166;28;20024;-54
2022/01/08 05:29:47;;;;;;;36.13;20.57;;;;;;;-0.12;95.27;101088.97;5063254;28;20029;-55
2022/01/08 05:32:16;;;;;;;40.20;21.40;;;;;;;-0.15;95.46;101092.63;5061769;28;20035;-53
2022/01/08 05:34:46;;;;;;;;;;;;;;;-0.14;95.42;101106.50;5062397;28;20384;-54
2022/01/08 05:37:12;;;;;;;35.53;21.40;;;;;;;-0.11;95.60;101109.75;5056798;28;20434;-55
2022/01/08 05:39:38;;;;;;;35.90;21.30;;;;;;;-0.07;95.71;101106.03;5060193;28;20032;-55
2022/01/08 05:42:04;;;;;;;35.53;22.53;;;;;;;-0.01;95.95;101096.97;5057601;28;20388;-54
2022/01/08 05:44:29;;;;;;;39.47;21.57;;;;;;;0.05;95.95;101094.00;5065870;28;20047;-54
2022/01/08 05:46:54;;;;;;;37.80;22.17;;;;;;;0.10;95.94;101099.75;5064538;28;20028;-55
2022/01/08 05:49:19;;;;;;;36.83;21.87;;;;;;;0.15;96.18;101107.28;5055946;28;20033;-55
2022/01/08 05:51:45;;;;;;;33.97;20.97;;;;;;;0.17;96.14;101098.41;5062338;28;20107;-55
2022/01/08 05:54:10;;;;;;;38.20;20.57;;;;;;;0.19;96.19;101100.94;5057831;28;20044;-55
2022/01/08 05:56:35;;;;;;;31.77;21.47;;;;;;;0.22;96.01;101112.03;5051597;28;20126;-53
2022/01/08 05:59:01;;;;;;;38.10;20.00;;;;;;;0.22;96.06;101108.56;5055345;28;20032;-53
2022/01/08 06:01:27;;;;;;;32.60;19.10;;;;;;;0.24;95.85;101111.91;5052730;28;20060;-54
2022/01/08 06:03:52;;;;;;;30.53;19.63;;;;;;;0.25;95.88;101105.75;5059235;28;20078;-55
2022/01/08 06:06:17;;;;;;;33.03;19.60;;;;;;;0.27;95.82;101117.78;5060848;28;20039;-55
2022/01/08 06:08:43;;;;;;;37.87;20.10;;;;;;;0.28;95.63;101122.06;5062326;28;20032;-58
2022/01/08 06:11:08;;;;;;;37.73;20.23;;;;;;;0.29;95.67;101123.78;5060451;28;20364;-57
2022/01/08 06:13:33;;;;;;;35.17;20.90;;;;;;;0.29;95.54;101128.16;5062488;28;20028;-57
2022/01/08 06:15:58;;;;;;;35.27;20.03;;;;;;;0.29;95.57;101123.78;5063012;28;20036;-57
2022/01/08 06:18:24;;;;;;;39.43;21.00;;;;;;;0.32;95.60;101127.97;5057633;28;20064;-57
2022/01/08 06:20:49;;;;;;;34.17;20.97;;;;;;;0.34;95.68;101131.31;5056217;28;20067;-57
2022/01/08 06:23:15;;;;;;;41.10;21.67;;;;;;;0.36;95.80;101139.06;5057485;28;20043;-57
2022/01/08 06:25:43;;;;;;;31.33;19.73;;;;;;;0.35;95.52;101137.38;5060892;28;20035;-56
2022/01/08 06:28:11;;;;;;;34.13;21.43;;;;;;;0.34;95.52;101136.53;5053084;28;20028;-57
2022/01/08 06:30:36;;;;;;;33.00;20.90;;;;;;;0.36;95.72;101136.44;5053435;28;20025;-58
2022/01/08 06:33:02;;;;;;;35.23;20.50;;;;;;;0.36;95.52;101132.06;5053318;28;20039;-58
2022/01/08 06:35:27;;;;;;;35.20;19.07;;;;;;;0.37;95.68;101130.28;5062559;28;20438;-57
2022/01/08 06:37:52;;;;;;;33.77;19.97;;;;;;;0.35;95.52;101130.38;5057984;28;20032;-57
2022/01/08 06:40:18;;;;;;;36.00;19.23;;;;;;;0.34;95.57;101120.88;5055386;28;20028;-57
2022/01/08 06:42:43;;;;;;;33.23;19.47;;;;;;;0.33;95.76;101123.56;5055567;28;20021;-55
2022/01/08 06:45:09;;;;;;;31.20;19.43;;;;;;;0.30;95.43;101119.38;5057311;28;20244;-58
2022/01/08 06:47:34;;;;;;;35.70;20.00;;;;;;;0.29;95.82;101115.09;5061163;28;20027;-57
2022/01/08 06:50:00;;;;;;;34.47;19.33;;;;;;;0.25;95.78;101110.97;5059598;28;20033;-57
2022/01/08 06:52:25;;;;;;;29.43;19.97;;;;;;;0.20;95.59;101108.66;5054969;28;20028;-57
2022/01/08 06:54:50;;;;;;;31.27;19.57;;;;;;;0.18;95.50;101107.94;5057079;28;20428;-57
2022/01/08 06:57:15;;;;;;;32.87;20.90;;;;;;;0.14;95.58;101109.06;5053291;28;20063;-58
2022/01/08 06:59:41;;;;;;;35.57;20.87;;;;;;;0.13;95.60;101111.78;5054539;28;20028;-56
2022/01/08 07:02:07;;;;;;;35.63;21.57;;;;;;;0.09;95.68;101121.56;5060861;28;20381;-57
2022/01/08 07:04:32;;;;;;;37.70;19.93;;;;;;;0.06;95.76;101118.31;5051114;28;20037;-58
2022/01/08 07:06:58;;;;;;;34.17;20.53;;;;;;;0.03;95.87;101113.31;5060266;28;20105;-57
2022/01/08 07:09:24;;;;;;;35.20;20.47;;;;;;;-0.04;95.75;101105.81;5060200;28;20093;-57
2022/01/08 07:11:49;;;;;;;39.73;20.27;;;;;;;-0.03;95.81;101119.72;5055943;28;20528;-56
2022/01/08 07:14:14;;;;;;;37.03;20.10;;;;;;;-0.06;95.81;101114.69;5059140;28;20524;-57
2022/01/08 07:16:40;;;;;;;31.17;20.27;;;;;;;-0.09;95.86;101113.09;5053319;28;20033;-57
2022/01/08 07:19:05;;;;;;;33.73;19.67;;;;;;;-0.10;95.98;101111.44;5049559;28;20480;-57
2022/01/08 07:21:30;;;;;;;36.90;20.93;;;;;;;-0.11;95.94;101108.91;5063382;28;20029;-57
2022/01/08 07:23:56;;;;;;;40.00;20.20;;;;;;;-0.13;95.88;101110.78;5058212;28;20025;-55
2022/01/08 07:26:21;;;;;;;37.43;19.40;;;;;;;-0.14;95.96;101114.34;5060561;28;20494;-57
2022/01/08 07:28:47;;;;;;;36.07;20.23;;;;;;;-0.14;96.00;101114.34;5057375;28;20044;-59
2022/01/08 07:31:12;;;;;;;37.70;20.10;;;;;;;-0.16;96.16;101110.97;5052804;28;20052;-57
2022/01/08 07:33:37;;;;;;;35.90;18.97;;;;;;;-0.16;96.09;101110.97;5060843;28;20021;-55
2022/01/08 07:36:03;;;;;;;31.97;19.33;;;;;;;-0.19;96.34;101108.56;5052925;28;20039;-55
2022/01/08 07:38:28;;;;;;;42.07;19.53;;;;;;;-0.20;96.30;101109.50;5058586;28;20029;-57
2022/01/08 07:40:53;;;;;;;36.00;20.20;;;;;;;-0.18;96.27;101102.41;5063426;28;20112;-57
2022/01/08 07:43:19;;;;;;;37.40;20.27;;;;;;;-0.18;96.36;101105.03;5031910;28;21890;-58
2022/01/08 07:45:45;;;;;;;34.43;20.40;;;;;;;-0.17;96.44;101111.91;5057295;28;20033;-57
2022/01/08 07:48:10;;;;;;;32.83;19.50;;;;;;;-0.17;96.50;101104.94;5043371;28;20183;-57
2022/01/08 07:50:36;;;;;;;44.40;21.33;;;;;;;-0.14;96.56;101099.50;5058144;28;20060;-57
2022/01/08 07:53:01;;;;;;;35.90;21.27;;;;;;;-0.12;96.71;101097.66;5059790;28;20020;-57
2022/01/08 07:55:27;;;;;;;40.37;21.77;;;;;;;-0.10;96.88;101095.78;5057300;28;20024;-57
2022/01/08 07:57:53;;;;;;;36.33;21.57;;;;;;;-0.07;97.02;101092.13;5048819;28;20041;-58
2022/01/08 08:00:19;;;;;;;39.97;22.63;;;;;;;-0.05;96.90;101098.09;5049798;28;20468;-57
2022/01/08 08:02:44;;;;;;;37.37;22.03;;;;;;;-0.03;96.86;101096.22;5054168;28;20079;-58
2022/01/08 08:05:10;;;;;;;42.10;20.53;;;;;;;0.01;97.13;101092.50;5050449;28;20036;-57
2022/01/08 08:07:38;;;;;;;42.27;22.50;;;;;;;0.02;97.02;101088.13;5056409;28;20488;-57
2022/01/08 08:10:10;;;;;;;38.53;20.03;;;;;;;0.05;96.95;101088.78;5056335;28;20517;-56
2022/01/08 08:12:36;;;;;;;42.37;21.10;;;;;;;0.06;97.16;101085.22;5050773;28;20028;-57
2022/01/08 08:15:01;;;;;;;36.70;19.67;;;;;;;0.11;97.26;101096.22;5056361;28;20027;-57
2022/01/08 08:17:26;;;;;;;42.00;20.00;;;;;;;0.13;97.29;101081.28;5058636;28;20464;-57
2022/01/08 08:19:52;;;;;;;37.37;20.13;;;;;;;0.18;97.22;101094.88;5061398;28;20085;-57
2022/01/08 08:22:17;;;;;;;34.67;19.37;;;;;;;0.19;97.20;101075.66;5041879;28;20469;-57
2022/01/08 08:24:42;;;;;;;30.33;18.57;;;;;;;0.23;97.08;101078.91;5061138;28;20086;-57
2022/01/08 08:27:07;;;;;;;34.60;17.93;;;;;;;0.26;97.21;101079.53;5075993;28;20476;-57
2022/01/08 08:29:33;;;;;;;36.53;17.83;;;;;;;0.26;97.29;101071.72;5065000;28;20067;-57
2022/01/08 08:31:58;;;;;;;35.90;16.60;;;;;;;0.27;96.99;101072.53;5059084;28;20021;-56
2022/01/08 08:34:24;;;;;;;30.70;18.07;;;;;;;0.29;97.04;101068.09;5058934;28;20111;-57
2022/01/08 08:36:49;;;;;;;34.83;17.53;;;;;;;0.32;97.09;101061.81;5058781;28;20124;-58
2022/01/08 08:39:15;;;;;;;30.43;16.27;;;;;;;0.34;97.18;101067.78;5058818;28;20028;-56
2022/01/08 08:41:40;;;;;;;34.53;18.50;;;;;;;0.36;97.05;101058.06;5065640;28;20028;-56
2022/01/08 08:44:05;;;;;;;38.47;18.00;;;;;;;0.40;96.85;101062.16;5060678;28;20033;-57
2022/01/08 08:46:30;;;;;;;35.93;19.50;;;;;;;0.44;96.89;101066.25;5066421;28;20053;-57
2022/01/08 08:48:56;;;;;;;34.77;18.77;;;;;;;0.48;96.95;101058.09;5059117;28;20020;-57
2022/01/08 08:51:21;;;;;;;34.17;19.47;;;;;;;0.52;97.28;101054.34;5061586;28;20048;-58
2022/01/08 08:53:46;;;;;;;37.13;18.93;;;;;;;0.56;96.94;101054.97;5057721;28;20031;-56
2022/01/08 08:56:11;;;;;;;35.20;19.97;;;;;;;0.59;97.04;101060.88;5057255;28;20239;-59
2022/01/08 08:58:37;;;;;;;35.50;19.77;;;;;;;0.64;96.88;101060.56;5060298;28;20028;-59
2022/01/08 09:01:02;;;;;;;35.87;21.43;;;;;;;0.67;96.90;101059.50;5054303;28;20426;-59
2022/01/08 09:03:27;;;;;;;35.23;19.73;;;;;;;0.71;97.15;101060.97;5054918;28;20029;-59
2022/01/08 09:05:53;;;;;;;38.70;22.03;;;;;;;0.75;96.94;101055.44;5059135;28;20031;-59
2022/01/08 09:08:18;;;;;;;38.87;20.50;;;;;;;0.79;96.81;101056.91;5051866;28;20040;-59
2022/01/08 09:10:43;;;;;;;40.73;21.63;;;;;;;0.81;96.80;101055.03;5062165;28;20027;-59
2022/01/08 09:13:08;;;;;;;38.27;20.43;;;;;;;0.87;97.02;101069.47;5058168;28;20049;-59
2022/01/08 09:15:37;;;;;;;40.30;21.77;;;;;;;0.89;96.44;101057.97;5064749;28;20522;-59
2022/01/08 09:18:03;;;;;;;42.47;21.77;;;;;;;0.95;96.72;101061.13;5059336;28;20461;-59
2022/01/08 09:20:29;;;;;;;40.50;21.60;;;;;;;0.98;96.61;101058.28;5063651;28;20032;-59
2022/01/08 09:22:55;;;;;;;38.00;21.37;;;;;;;1.00;96.20;101045.94;5058225;28;20381;-59
2022/01/08 09:25:21;;;;;;;42.33;22.47;;;;;;;1.01;96.33;101045.00;5055220;28;20487;-61
2022/01/08 09:27:46;;;;;;;38.67;22.23;;;;;;;1.03;96.28;101045.75;5056136;28;20031;-60
2022/01/08 09:30:12;;;;;;;42.73;23.43;;;;;;;1.07;96.30;101037.56;5065970;28;20108;-58
2022/01/08 09:32:38;;;;;;;41.97;22.23;;;;;;;1.09;96.12;101035.69;5057882;28;20396;-59
2022/01/08 09:35:06;;;;;;;46.63;22.53;;;;;;;1.12;95.96;101034.63;5063305;28;20056;-59
2022/01/08 09:37:33;;;;;;;40.90;21.47;;;;;;;1.16;95.87;101036.13;5054997;28;20040;-60
2022/01/08 09:39:58;;;;;;;41.20;22.73;;;;;;;1.19;95.95;101034.13;5055772;28;20021;-60
2022/01/08 09:42:23;;;;;;;42.57;22.87;;;;;;;1.23;95.84;101027.75;5060375;28;20046;-59
2022/01/08 09:44:49;;;;;;;44.50;22.83;;;;;;;1.27;95.78;101023.13;5064747;28;20119;-60
2022/01/08 09:47:14;;;;;;;40.60;21.30;;;;;;;1.30;95.67;101027.31;5055763;28;20534;-60
2022/01/08 09:49:40;;;;;;;40.27;23.00;;;;;;;1.31;95.78;101023.75;5055454;28;20360;-60
2022/01/08 09:52:07;;;;;;;40.40;21.63;;;;;;;1.32;95.60;101015.81;5042483;28;20024;-60
2022/01/08 09:54:33;;;;;;;42.53;22.07;;;;;;;1.33;95.51;101007.00;5058269;28;20024;-60
2022/01/08 09:56:59;;;;;;;39.43;20.50;;;;;;;1.35;95.42;100999.88;5062901;28;20361;-61
2022/01/08 09:59:25;;;;;;;44.97;21.03;;;;;;;1.38;95.38;100990.97;5060246;28;20070;-59
2022/01/08 10:01:56;;;;;;;40.07;21.53;;;;;;;1.41;95.52;100981.13;5061492;28;20635;-59
2022/01/08 10:04:30;;;;;;;40.83;22.00;;;;;;;1.45;95.35;100981.78;5055291;28;20036;-59
2022/01/08 10:07:20;;;;;;;38.87;21.27;;;;;;;1.48;95.00;100968.47;5059409;28;20357;-59
2022/01/08 10:10:12;;;;;;;38.30;21.17;;;;;;;1.50;95.05;100959.56;5056555;28;20067;-59
2022/01/08 10:12:53;;;;;;;33.37;18.83;;;;;;;1.53;94.90;100954.13;5061673;28;20054;-59
2022/01/08 10:18:25;;;;;;;41.33;20.00;;;;;;;1.60;94.81;100927.50;5056419;28;20063;-60
2022/01/08 10:20:52;;;;;;;37.77;20.13;;;;;;;1.63;94.70;100911.56;5056481;28;20032;-59
2022/01/08 10:23:22;;;;;;;39.63;19.53;;;;;;;1.67;94.87;100907.78;5057912;28;20055;-58
2022/01/08 10:26:05;;;;;;;36.43;19.50;;;;;;;1.70;94.90;100905.75;5057669;28;20031;-60
2022/01/08 10:28:36;;;;;;;42.00;19.37;;;;;;;1.73;94.76;100907.31;5053036;28;20035;-57
2022/01/08 10:31:22;;;;;;;33.43;19.40;;;;;;;1.73;94.29;100900.28;5057682;28;20028;-57
2022/01/08 10:34:04;;;;;;;40.30;21.17;;;;;;;1.74;94.24;100896.75;5057584;28;20028;-56
2022/01/08 10:36:37;;;;;;;37.73;19.53;;;;;;;1.76;94.14;100887.00;5057816;28;20032;-57
2022/01/08 10:39:08;;;;;;;35.43;19.47;;;;;;;1.81;94.37;100886.66;5058689;28;20028;-56
2022/01/08 10:41:42;;;;;;;36.83;19.67;;;;;;;1.83;94.03;100874.31;5050538;28;20400;-58
2022/01/08 10:44:09;;;;;;;39.37;19.40;;;;;;;1.85;93.99;100873.22;5058404;28;20032;-57
2022/01/08 10:46:35;;;;;;;46.40;18.90;;;;;;;1.88;93.88;100871.34;5060069;28;20033;-59
2022/01/08 10:49:00;;;;;;;35.87;18.93;;;;;;;1.90;93.81;100858.97;5058030;28;20052;-57
2022/01/08 10:51:32;;;;;;;36.70;19.63;;;;;;;1.94;93.48;100857.78;5057756;28;20064;-57
2022/01/08 10:54:08;;;;;;;36.60;18.70;;;;;;;1.96;93.34;100843.63;5069394;28;20048;-57
2022/01/08 10:56:36;;;;;;;36.47;19.53;;;;;;;1.98;93.04;100826.00;5057761;28;20542;-57
2022/01/08 10:59:24;;;;;;;39.37;19.37;;;;;;;2.03;93.13;100823.06;5056521;28;20020;-57
2022/01/08 11:02:00;;;;;;;40.10;21.17;;;;;;;2.05;93.14;100816.75;5050008;28;20036;-57
2022/01/08 11:04:47;;;;;;;37.27;19.37;;;;;;;2.08;92.77;100827.00;5057143;28;20053;-57
2022/01/08 11:07:18;;;;;;;36.23;19.27;;;;;;;2.12;93.04;100811.88;5058532;28;20083;-57
2022/01/08 11:09:45;;;;;;;37.63;19.03;;;;;;;2.14;92.71;100815.22;5051350;28;20094;-57
2022/01/08 11:12:16;;;;;;;39.10;19.43;;;;;;;2.16;92.62;100805.44;5058168;28;20032;-58
2022/01/08 11:17:16;;;;;;;37.37;18.70;;;;;;;2.24;92.54;100792.59;5051118;28;20588;-59
2022/01/08 11:19:44;;;;;;;39.03;18.73;;;;;;;2.26;92.81;100782.81;5057456;28;20055;-59
2022/01/08 11:22:12;;;;;;;32.90;17.40;;;;;;;2.32;92.58;100773.69;5059041;28;21391;-59
2022/01/08 11:24:43;;;;;;;39.47;18.17;;;;;;;2.37;92.36;100768.91;5065955;28;20506;-59
2022/01/08 11:27:09;;;;;;;32.37;17.80;;;;;;;2.44;92.58;100764.84;5059057;28;20024;-59
2022/01/08 11:29:37;;;;;;;32.77;17.60;;;;;;;2.48;92.29;100761.03;5057701;28;20028;-59
2022/01/08 11:32:04;;;;;;;30.53;16.93;;;;;;;2.54;92.06;100759.69;5055036;28;20436;-59
2022/01/08 11:34:31;;;;;;;29.63;16.33;;;;;;;2.58;91.93;100755.88;5059918;28;20108;-59
2022/01/08 11:36:56;;;;;;;32.30;17.00;;;;;;;2.62;91.76;100746.84;5057386;28;20024;-59